Time;durP1;ratioP1;P1;durP2;ratioP2;P2;SDS_P1;SDS_P2;PMS_P1;PMS_P2;Temp;Humidity;BMP_temperature;BMP_pressure;BME280_temperature;BME280_humidity;BME280_pressure;Samples;Min_cycle;Max_cycle;Signal;HPM_P1;HPM_P2
2023/10/27 00:00:03;;;;;;;5.67;2.53;;;;;;;11.49;100.00;95946.72;5075724;28;20552;-75
2023/10/27 00:02:29;;;;;;;5.90;2.40;;;;;;;11.40;100.00;95949.16;5075916;28;20253;-75
2023/10/27 00:04:55;;;;;;;4.50;2.47;;;;;;;11.52;100.00;95946.19;5075783;28;20201;-75
2023/10/27 00:07:22;;;;;;;4.27;1.87;;;;;;;11.57;100.00;95952.25;5075715;28;20225;-75
2023/10/27 00:09:48;;;;;;;5.20;2.23;;;;;;;11.46;100.00;95944.59;5075659;28;20205;-75
2023/10/27 00:12:15;;;;;;;4.77;2.27;;;;;;;11.41;100.00;95939.31;5075635;28;20197;-75
2023/10/27 00:14:41;;;;;;;5.70;2.17;;;;;;;11.43;100.00;95947.81;5075362;28;20574;-75
2023/10/27 00:17:07;;;;;;;4.60;2.30;;;;;;;11.39;100.00;95944.91;5075447;28;20211;-75
2023/10/27 00:19:34;;;;;;;3.63;2.20;;;;;;;11.31;100.00;95942.03;5075532;28;20311;-75
2023/10/27 00:22:00;;;;;;;6.70;2.53;;;;;;;11.26;100.00;95937.53;5075260;28;20224;-75
2023/10/27 00:24:27;;;;;;;4.07;2.43;;;;;;;11.30;100.00;95938.56;5075143;28;20219;-75
2023/10/27 00:26:53;;;;;;;6.53;2.10;;;;;;;11.23;100.00;95939.94;5076176;28;20217;-75
2023/10/27 00:29:19;;;;;;;3.83;1.83;;;;;;;11.39;100.00;95941.47;5075084;28;20231;-75
2023/10/27 00:31:46;;;;;;;5.27;2.00;;;;;;;11.38;100.00;95948.63;5075046;28;20660;-75
2023/10/27 00:34:12;;;;;;;3.63;2.17;;;;;;;11.23;100.00;95938.88;5075126;28;20573;-75
2023/10/27 00:36:39;;;;;;;8.20;2.30;;;;;;;11.28;100.00;95941.50;5074841;28;20690;-75
2023/10/27 00:39:05;;;;;;;7.53;2.30;;;;;;;11.23;100.00;95938.09;5074787;28;20228;-75
2023/10/27 00:41:32;;;;;;;6.50;2.13;;;;;;;11.34;100.00;95939.63;5074757;28;20228;-75
2023/10/27 00:43:58;;;;;;;4.37;1.93;;;;;;;11.26;100.00;95937.53;5074998;28;20209;-75
2023/10/27 00:46:25;;;;;;;7.60;1.80;;;;;;;11.32;100.00;95939.09;5074941;28;20244;-75
2023/10/27 00:48:51;;;;;;;4.50;1.80;;;;;;;11.40;100.00;95938.50;5075102;28;20260;-75
2023/10/27 00:51:17;;;;;;;4.93;1.90;;;;;;;11.26;100.00;95931.44;5074548;28;20270;-75
2023/10/27 00:53:44;;;;;;;4.13;2.20;;;;;;;11.19;100.00;95932.50;5075043;28;20205;-75
2023/10/27 00:56:10;;;;;;;4.90;2.10;;;;;;;11.34;100.00;95928.97;5074805;28;20204;-75
2023/10/27 00:58:38;;;;;;;5.90;2.50;;;;;;;11.27;100.00;95933.81;5074350;28;20566;-75
2023/10/27 01:01:05;;;;;;;3.87;1.90;;;;;;;11.24;100.00;95934.34;5074179;28;20599;-75
2023/10/27 01:03:32;;;;;;;3.03;1.70;;;;;;;11.32;100.00;95928.47;5074586;28;20211;-75
2023/10/27 01:05:58;;;;;;;5.90;1.83;;;;;;;11.36;100.00;95921.53;5074613;28;20208;-75
2023/10/27 01:08:25;;;;;;;3.27;1.67;;;;;;;11.32;100.00;95915.16;5074226;28;20703;-75
2023/10/27 01:10:51;;;;;;;3.93;1.73;;;;;;;11.28;100.00;95920.22;5074500;28;20207;-75
2023/10/27 01:13:17;;;;;;;4.83;1.80;;;;;;;11.27;100.00;95917.84;5074453;28;20208;-75
2023/10/27 01:15:44;;;;;;;4.03;1.77;;;;;;;11.27;100.00;95926.63;5074378;28;20571;-75
2023/10/27 01:18:10;;;;;;;4.83;1.50;;;;;;;11.27;100.00;95918.63;5074879;28;20323;-75
2023/10/27 01:20:37;;;;;;;4.13;1.70;;;;;;;11.07;100.00;95923.25;5074149;28;20239;-75
2023/10/27 01:23:04;;;;;;;6.40;1.77;;;;;;;11.21;100.00;95924.25;5074312;28;20576;-75
2023/10/27 01:25:30;;;;;;;3.27;1.50;;;;;;;11.19;100.00;95915.75;5073898;28;20205;-75
2023/10/27 01:27:57;;;;;;;4.30;1.80;;;;;;;11.15;100.00;95909.41;5074129;28;20225;-75
2023/10/27 01:30:24;;;;;;;3.97;1.60;;;;;;;11.32;100.00;95909.84;5074088;28;20207;-75
2023/10/27 01:32:50;;;;;;;6.37;1.63;;;;;;;11.12;100.00;95909.16;5074127;28;20200;-75
2023/10/27 01:35:17;;;;;;;2.70;1.77;;;;;;;11.18;100.00;95902.75;5073860;28;20208;-75
2023/10/27 01:37:43;;;;;;;3.17;1.40;;;;;;;11.31;100.00;95902.13;5073673;28;20592;-75
2023/10/27 01:40:10;;;;;;;4.47;1.57;;;;;;;11.10;100.00;95902.22;5073963;28;20210;-75
2023/10/27 01:42:37;;;;;;;3.93;1.40;;;;;;;11.13;100.00;95900.09;5073385;28;20235;-75
2023/10/27 01:45:04;;;;;;;5.83;1.70;;;;;;;11.07;100.00;95902.00;5073948;28;20201;-75
2023/10/27 01:47:31;;;;;;;5.27;1.70;;;;;;;11.14;100.00;95897.97;5073729;28;20224;-75
2023/10/27 01:49:58;;;;;;;5.27;2.00;;;;;;;11.04;100.00;95897.25;5073846;28;20571;-75
2023/10/27 01:52:24;;;;;;;3.73;1.43;;;;;;;11.04;100.00;95895.34;5073865;28;20565;-75
2023/10/27 01:54:53;;;;;;;3.60;1.60;;;;;;;11.10;100.00;95901.44;5073853;28;20205;-75
2023/10/27 01:57:20;;;;;;;2.70;1.30;;;;;;;10.95;100.00;95897.00;5073423;28;20777;-75
2023/10/27 01:59:47;;;;;;;5.20;1.77;;;;;;;11.07;100.00;95896.66;5073531;28;20204;-75
2023/10/27 02:02:15;;;;;;;2.90;1.50;;;;;;;10.98;100.00;95887.69;5073854;28;20212;-75
2023/10/27 02:04:42;;;;;;;2.73;1.23;;;;;;;11.00;100.00;95888.22;5073694;28;20282;-75
2023/10/27 02:07:08;;;;;;;3.10;1.57;;;;;;;11.05;100.00;95891.63;5073225;28;20204;-75
2023/10/27 02:09:35;;;;;;;3.20;1.10;;;;;;;11.03;100.00;95891.13;5074401;28;20204;-75
2023/10/27 02:12:02;;;;;;;3.47;1.30;;;;;;;11.04;100.00;95886.59;5073490;28;20207;-75
2023/10/27 02:14:29;;;;;;;3.03;1.27;;;;;;;11.06;100.00;95887.13;5073544;28;20204;-75
2023/10/27 02:16:55;;;;;;;2.97;1.47;;;;;;;11.15;100.00;95890.78;5073571;28;20204;-75
2023/10/27 02:19:22;;;;;;;3.73;1.67;;;;;;;11.17;100.00;95893.19;5073554;28;20207;-75
2023/10/27 02:21:48;;;;;;;2.87;1.60;;;;;;;11.14;100.00;95889.97;5073411;28;20228;-75
2023/10/27 02:24:14;;;;;;;3.90;1.63;;;;;;;11.18;100.00;95891.03;5073281;28;20300;-75
2023/10/27 02:26:41;;;;;;;2.40;1.47;;;;;;;11.21;100.00;95889.69;5073416;28;20291;-75
2023/10/27 02:29:07;;;;;;;2.37;1.40;;;;;;;11.32;100.00;95888.56;5073025;28;20225;-75
2023/10/27 02:31:33;;;;;;;2.53;1.43;;;;;;;11.31;100.00;95886.97;5073089;28;20204;-75
2023/10/27 02:34:00;;;;;;;3.93;1.53;;;;;;;11.32;100.00;95892.00;5073223;28;20231;-75
2023/10/27 02:36:26;;;;;;;3.10;1.20;;;;;;;11.25;100.00;95892.59;5073319;28;20230;-75
2023/10/27 02:38:52;;;;;;;5.23;1.70;;;;;;;11.22;100.00;95893.16;5073283;28;20225;-75
2023/10/27 02:41:19;;;;;;;6.50;1.63;;;;;;;11.32;100.00;95893.88;5072792;28;20225;-75
2023/10/27 02:43:45;;;;;;;2.90;1.57;;;;;;;11.38;100.00;95890.13;5073214;28;20215;-75
2023/10/27 02:46:13;;;;;;;4.20;1.60;;;;;;;11.22;100.00;95887.81;5073174;28;20200;-75
2023/10/27 02:48:41;;;;;;;2.73;1.30;;;;;;;11.25;100.00;95890.72;5072848;28;20718;-75
2023/10/27 02:51:08;;;;;;;4.37;1.70;;;;;;;11.40;100.00;95895.16;5072871;28;20212;-75
2023/10/27 02:53:35;;;;;;;2.30;1.30;;;;;;;11.34;100.00;95883.75;5074333;28;20207;-75
2023/10/27 02:56:09;;;;;;;8.50;1.67;;;;;;;11.27;100.00;95876.06;5077101;28;20550;-75
2023/10/27 02:58:35;;;;;;;1.97;1.40;;;;;;;11.12;100.00;95870.06;5059411;28;20223;-75
2023/10/27 03:01:08;;;;;;;2.20;1.43;;;;;;;11.27;100.00;95869.19;5076596;28;20785;-75
2023/10/27 03:03:34;;;;;;;6.23;1.80;;;;;;;11.30;100.00;95873.97;5076675;28;20185;-75
2023/10/27 03:06:01;;;;;;;3.43;1.67;;;;;;;11.18;100.00;95871.63;5076803;28;20291;-75
2023/10/27 03:08:27;;;;;;;2.67;1.70;;;;;;;11.20;100.00;95874.81;5076781;28;20236;-75
2023/10/27 03:10:53;;;;;;;7.50;1.77;;;;;;;11.23;100.00;95875.03;5076681;28;20273;-75
2023/10/27 03:13:20;;;;;;;5.60;1.93;;;;;;;11.18;100.00;95874.28;5076418;28;20295;-75
2023/10/27 03:15:47;;;;;;;3.83;1.70;;;;;;;11.16;100.00;95868.44;5076670;28;20201;-75
2023/10/27 03:18:13;;;;;;;2.60;1.50;;;;;;;11.00;100.00;95864.28;5076519;28;20286;-75
2023/10/27 03:20:40;;;;;;;3.07;1.67;;;;;;;10.94;100.00;95866.16;5076353;28;20706;-75
2023/10/27 03:23:06;;;;;;;3.63;1.43;;;;;;;10.90;100.00;95862.47;5076371;28;20220;-75
2023/10/27 03:25:32;;;;;;;2.70;1.47;;;;;;;10.88;100.00;95851.31;5076153;28;20574;-75
2023/10/27 03:27:59;;;;;;;5.67;2.00;;;;;;;10.91;100.00;95861.41;5076384;28;20230;-75
2023/10/27 03:30:26;;;;;;;3.53;1.73;;;;;;;10.87;100.00;95855.03;5076629;28;20227;-75
2023/10/27 03:32:52;;;;;;;3.13;1.60;;;;;;;10.77;100.00;95851.66;5075977;28;20660;-75
2023/10/27 03:35:19;;;;;;;6.13;2.03;;;;;;;10.77;100.00;95855.09;5075893;28;20207;-75
2023/10/27 03:37:45;;;;;;;6.63;2.10;;;;;;;10.82;100.00;95859.59;5076127;28;20239;-75
2023/10/27 03:40:12;;;;;;;5.47;2.20;;;;;;;10.92;100.00;95862.19;5076152;28;20209;-75
2023/10/27 03:42:38;;;;;;;3.67;1.90;;;;;;;11.00;100.00;95869.59;5076298;28;20241;-75
2023/10/27 03:45:06;;;;;;;4.80;1.70;;;;;;;10.97;100.00;95859.50;5075925;28;20659;-75
2023/10/27 03:47:32;;;;;;;3.43;1.87;;;;;;;10.82;100.00;95849.75;5075758;28;20228;-75
2023/10/27 03:49:59;;;;;;;6.17;1.90;;;;;;;10.82;100.00;95838.34;5075701;28;20667;-75
2023/10/27 03:52:25;;;;;;;5.60;2.00;;;;;;;10.76;100.00;95829.59;5075958;28;20201;-75
2023/10/27 03:54:52;;;;;;;4.53;2.33;;;;;;;10.73;100.00;95832.78;5075958;28;20578;-75
2023/10/27 03:57:19;;;;;;;7.27;2.47;;;;;;;10.67;100.00;95831.22;5075834;28;20376;-75
2023/10/27 03:59:46;;;;;;;5.47;2.27;;;;;;;10.57;100.00;95831.28;5075640;28;20564;-75
2023/10/27 04:02:12;;;;;;;3.03;1.60;;;;;;;10.77;100.00;95835.72;5075991;28;20205;-75
2023/10/27 04:04:39;;;;;;;3.57;1.90;;;;;;;10.78;100.00;95835.41;5074836;28;20624;-75
2023/10/27 04:07:05;;;;;;;3.90;1.60;;;;;;;10.76;100.00;95837.56;5075654;28;20208;-75
2023/10/27 04:09:31;;;;;;;2.47;1.53;;;;;;;10.66;100.00;95836.81;5075283;28;20205;-75
2023/10/27 04:11:58;;;;;;;4.60;1.87;;;;;;;10.68;100.00;95838.13;5075524;28;20287;-75
2023/10/27 04:14:24;;;;;;;3.90;1.60;;;;;;;10.68;100.00;95832.03;5075209;28;20575;-75
2023/10/27 04:16:50;;;;;;;3.77;1.70;;;;;;;10.73;100.00;95827.47;5075466;28;20204;-75
2023/10/27 04:19:17;;;;;;;5.10;1.97;;;;;;;10.75;100.00;95830.66;5075469;28;20228;-75
2023/10/27 04:21:43;;;;;;;4.90;1.30;;;;;;;10.62;100.00;95831.25;5075206;28;20230;-73
2023/10/27 04:24:10;;;;;;;3.77;1.60;;;;;;;10.69;100.00;95842.38;5075170;28;20211;-74
2023/10/27 04:26:36;;;;;;;3.00;1.60;;;;;;;10.60;100.00;95840.56;5075055;28;20214;-74
2023/10/27 04:29:03;;;;;;;5.63;2.10;;;;;;;10.53;100.00;95840.03;5075113;28;20225;-74
2023/10/27 04:31:29;;;;;;;3.27;1.50;;;;;;;10.51;100.00;95840.31;5074932;28;20296;-75
2023/10/27 04:33:56;;;;;;;3.23;1.90;;;;;;;10.52;100.00;95841.13;5074810;28;20640;-75
2023/10/27 04:36:22;;;;;;;5.13;1.70;;;;;;;10.51;100.00;95835.00;5075149;28;20208;-75
2023/10/27 04:38:48;;;;;;;3.60;1.70;;;;;;;10.50;100.00;95841.38;5074625;28;20228;-75
2023/10/27 04:41:15;;;;;;;2.73;1.50;;;;;;;10.64;100.00;95836.28;5074814;28;20303;-75
2023/10/27 04:43:42;;;;;;;2.13;1.37;;;;;;;10.60;100.00;95841.34;5074404;28;20201;-77
2023/10/27 04:46:09;;;;;;;2.37;1.40;;;;;;;10.61;100.00;95834.97;5074082;28;20209;-76
2023/10/27 04:48:35;;;;;;;2.83;1.70;;;;;;;10.68;100.00;95840.78;5074287;28;20726;-76
2023/10/27 04:51:03;;;;;;;4.00;1.50;;;;;;;10.81;100.00;95842.03;5074339;28;20677;-74
2023/10/27 04:53:31;;;;;;;3.80;1.97;;;;;;;10.66;100.00;95852.75;5074368;28;20207;-74
2023/10/27 04:55:57;;;;;;;3.53;1.37;;;;;;;10.74;100.00;95850.34;5074045;28;20609;-74
2023/10/27 04:58:25;;;;;;;4.30;1.70;;;;;;;10.60;100.00;95849.31;5073823;28;20224;-74
2023/10/27 05:00:51;;;;;;;2.70;1.50;;;;;;;10.76;100.00;95836.75;5074012;28;20251;-74
2023/10/27 05:03:18;;;;;;;3.33;1.67;;;;;;;10.70;100.00;95840.50;5073680;28;20656;-74
2023/10/27 05:05:44;;;;;;;4.67;1.57;;;;;;;10.71;100.00;95834.13;5074252;28;20212;-76
2023/10/27 05:08:11;;;;;;;2.23;1.50;;;;;;;10.63;100.00;95837.34;5074261;28;20230;-74
2023/10/27 05:10:40;;;;;;;3.60;1.30;;;;;;;10.74;100.00;95842.38;5074341;28;20200;-74
2023/10/27 05:13:07;;;;;;;3.73;1.90;;;;;;;10.70;100.00;95851.94;5074585;28;20204;-74
2023/10/27 05:15:33;;;;;;;5.57;1.70;;;;;;;10.71;100.00;95855.38;5073256;28;20236;-74
2023/10/27 05:18:04;;;;;;;4.70;1.70;;;;;;;10.73;100.00;95861.22;5073612;28;20235;-74
2023/10/27 05:20:38;;;;;;;4.83;2.00;;;;;;;10.70;100.00;95859.91;5074135;28;20246;-74
2023/10/27 05:23:04;;;;;;;2.67;1.57;;;;;;;10.81;100.00;95855.31;5073946;28;20204;-74
2023/10/27 05:25:31;;;;;;;4.37;2.00;;;;;;;10.70;100.00;95864.44;5073740;28;20290;-74
2023/10/27 05:27:57;;;;;;;3.03;1.60;;;;;;;10.70;100.00;95856.44;5073804;28;20229;-74
2023/10/27 05:30:23;;;;;;;2.40;1.63;;;;;;;10.72;100.00;95854.31;5073735;28;20212;-74
2023/10/27 05:32:50;;;;;;;3.10;1.43;;;;;;;10.74;100.00;95853.00;5073867;28;20201;-74
2023/10/27 05:35:16;;;;;;;3.10;1.30;;;;;;;10.74;100.00;95855.66;5074217;28;20216;-74
2023/10/27 05:37:43;;;;;;;4.63;1.20;;;;;;;10.83;100.00;95859.34;5073456;28;20251;-74
2023/10/27 05:40:10;;;;;;;4.07;1.53;;;;;;;10.75;100.00;95859.88;5073413;28;20216;-74
2023/10/27 05:42:36;;;;;;;6.27;1.70;;;;;;;10.68;100.00;95864.69;5073234;28;20221;-74
2023/10/27 05:45:03;;;;;;;3.17;1.70;;;;;;;10.69;100.00;95870.81;5073446;28;20208;-74
2023/10/27 05:47:29;;;;;;;4.50;1.80;;;;;;;10.83;100.00;95874.47;5074010;28;20232;-74
2023/10/27 05:49:57;;;;;;;3.00;1.80;;;;;;;10.95;100.00;95885.59;5073690;28;20204;-74
2023/10/27 05:52:23;;;;;;;2.30;1.37;;;;;;;10.76;100.00;95887.25;5074465;28;20291;-74
2023/10/27 05:54:50;;;;;;;4.27;1.90;;;;;;;10.69;100.00;95887.53;5073086;28;20208;-74
2023/10/27 05:57:16;;;;;;;4.23;1.70;;;;;;;10.68;100.00;95888.59;5073294;28;20204;-74
2023/10/27 05:59:42;;;;;;;2.90;1.60;;;;;;;10.76;100.00;95889.91;5072941;28;20205;-74
2023/10/27 06:02:09;;;;;;;2.20;1.30;;;;;;;10.74;100.00;95889.38;5073147;28;20592;-73
2023/10/27 06:04:36;;;;;;;2.47;1.37;;;;;;;10.63;100.00;95898.44;5073091;28;20566;-73
2023/10/27 06:07:03;;;;;;;2.67;1.67;;;;;;;10.56;100.00;95904.06;5073204;28;20211;-73
2023/10/27 06:09:31;;;;;;;2.90;1.40;;;;;;;10.62;100.00;95915.47;5073139;28;20212;-73
2023/10/27 06:11:58;;;;;;;3.87;1.67;;;;;;;10.63;100.00;95906.41;5072969;28;20566;-74
2023/10/27 06:14:24;;;;;;;2.30;1.30;;;;;;;10.63;100.00;95914.38;5073347;28;20207;-74
2023/10/27 06:16:50;;;;;;;3.87;1.40;;;;;;;10.58;100.00;95917.88;5072957;28;20606;-76
2023/10/27 06:19:17;;;;;;;1.83;1.40;;;;;;;10.86;100.00;95927.09;5073024;28;20228;-73
2023/10/27 06:21:47;;;;;;;3.07;1.40;;;;;;;10.84;100.00;95924.69;5073626;28;20204;-74
2023/10/27 06:24:13;;;;;;;3.13;1.70;;;;;;;10.86;100.00;95929.75;5074501;28;20235;-73
2023/10/27 06:26:40;;;;;;;2.00;1.40;;;;;;;10.82;100.00;95944.66;5073394;28;20208;-73
2023/10/27 06:29:06;;;;;;;1.63;1.30;;;;;;;10.81;100.00;95945.69;5076924;28;20224;-74
2023/10/27 06:31:32;;;;;;;1.53;1.33;;;;;;;10.81;100.00;95945.69;5077527;28;20211;-73
2023/10/27 06:33:59;;;;;;;1.10;1.00;;;;;;;10.78;100.00;95949.69;5078873;28;20600;-74
2023/10/27 06:36:28;;;;;;;1.40;1.20;;;;;;;10.91;100.00;95954.44;5077894;28;20204;-74
2023/10/27 06:38:54;;;;;;;3.87;1.30;;;;;;;10.98;100.00;95954.94;5076843;28;20232;-74
2023/10/27 06:41:21;;;;;;;1.80;1.30;;;;;;;10.81;100.00;95956.31;5076882;28;20311;-73
2023/10/27 06:43:47;;;;;;;1.00;1.00;;;;;;;10.73;100.00;95954.25;5076755;28;20228;-73
2023/10/27 06:46:13;;;;;;;1.73;1.00;;;;;;;10.86;100.00;95954.44;5076717;28;20204;-73
2023/10/27 06:48:40;;;;;;;1.13;1.03;;;;;;;10.89;100.00;95958.41;5077113;28;20228;-73
2023/10/27 06:51:06;;;;;;;1.77;1.03;;;;;;;11.00;100.00;95970.63;5076470;28;20255;-73
2023/10/27 06:53:32;;;;;;;2.53;1.20;;;;;;;10.98;100.00;95966.66;5076378;28;20207;-73
2023/10/27 06:55:59;;;;;;;1.63;1.10;;;;;;;10.99;100.00;95972.47;5076715;28;20300;-73
2023/10/27 06:58:25;;;;;;;1.30;1.07;;;;;;;11.00;100.00;95973.28;5076700;28;20225;-73
2023/10/27 07:00:52;;;;;;;1.70;0.90;;;;;;;11.10;100.00;95970.59;5076374;28;20212;-73
2023/10/27 07:03:18;;;;;;;3.40;1.10;;;;;;;11.09;100.00;95969.78;5076703;28;20228;-73
2023/10/27 07:05:45;;;;;;;2.53;0.93;;;;;;;11.14;100.00;95972.41;5076672;28;20207;-73
2023/10/27 07:08:11;;;;;;;2.23;1.00;;;;;;;11.07;100.00;95971.13;5076257;28;20587;-74
2023/10/27 07:10:39;;;;;;;2.17;1.00;;;;;;;11.20;100.00;95983.84;5076556;28;20208;-73
2023/10/27 07:13:05;;;;;;;1.00;0.90;;;;;;;11.15;100.00;95978.53;5076252;28;20293;-73
2023/10/27 07:15:32;;;;;;;1.80;1.00;;;;;;;11.19;100.00;95988.34;5076408;28;20204;-73
2023/10/27 07:17:58;;;;;;;1.67;0.97;;;;;;;11.29;100.00;95992.84;5076377;28;20245;-73
2023/10/27 07:20:24;;;;;;;1.50;0.97;;;;;;;11.25;100.00;95989.13;5076381;28;20211;-74
2023/10/27 07:22:51;;;;;;;2.63;0.90;;;;;;;11.32;100.00;95993.06;5076344;28;20231;-73
2023/10/27 07:25:17;;;;;;;2.00;0.90;;;;;;;11.39;100.00;96000.00;5076419;28;20204;-73
2023/10/27 07:27:45;;;;;;;1.97;0.97;;;;;;;11.27;100.00;95992.31;5076068;28;20275;-73
2023/10/27 07:30:12;;;;;;;2.40;1.10;;;;;;;11.32;100.00;96001.06;5075912;28;20208;-73
2023/10/27 07:32:38;;;;;;;3.83;0.97;;;;;;;11.42;100.00;95996.75;5076032;28;20207;-73
2023/10/27 07:35:05;;;;;;;2.57;0.80;;;;;;;11.28;100.00;95993.91;5075987;28;20202;-74
2023/10/27 07:37:31;;;;;;;1.07;0.80;;;;;;;11.22;100.00;95999.53;5075948;28;20585;-74
2023/10/27 07:39:58;;;;;;;3.00;0.80;;;;;;;11.23;100.00;95997.38;5075530;28;20286;-74
2023/10/27 07:42:24;;;;;;;2.43;0.80;;;;;;;11.38;100.00;96001.03;5075891;28;20226;-73
2023/10/27 07:44:50;;;;;;;1.30;1.20;;;;;;;11.34;100.00;96011.44;5075755;28;20300;-73
2023/10/27 07:47:17;;;;;;;0.90;0.73;;;;;;;11.53;100.00;96007.06;5075783;28;20244;-73
2023/10/27 07:49:43;;;;;;;2.47;1.07;;;;;;;11.46;100.00;96011.91;5075805;28;20206;-73
2023/10/27 07:52:10;;;;;;;1.37;1.03;;;;;;;11.56;100.00;96014.53;5075776;28;20208;-73
2023/10/27 07:54:37;;;;;;;0.93;0.80;;;;;;;11.59;100.00;96019.31;5075343;28;20219;-73
2023/10/27 07:57:04;;;;;;;3.13;0.80;;;;;;;11.68;100.00;96024.88;5075154;28;20215;-73
2023/10/27 07:59:32;;;;;;;1.13;0.83;;;;;;;11.62;100.00;96026.75;5075269;28;20545;-73
2023/10/27 08:01:58;;;;;;;0.60;0.60;;;;;;;11.57;100.00;96029.41;5075415;28;20217;-73
2023/10/27 08:04:25;;;;;;;0.60;0.60;;;;;;;11.56;100.00;96030.50;5075334;28;20704;-73
2023/10/27 08:06:52;;;;;;;0.60;0.60;;;;;;;11.62;100.00;96045.38;5075290;28;20659;-74
2023/10/27 08:09:20;;;;;;;0.97;0.50;;;;;;;11.76;100.00;96046.38;5075128;28;20733;-74
2023/10/27 08:11:50;;;;;;;1.40;0.60;;;;;;;11.77;100.00;96060.50;5075624;28;20602;-74
2023/10/27 08:14:16;;;;;;;2.13;1.17;;;;;;;11.68;100.00;96059.47;5075036;28;20205;-74
2023/10/27 08:16:44;;;;;;;1.07;0.40;;;;;;;11.69;100.00;96072.50;5075266;28;20205;-74
2023/10/27 08:19:10;;;;;;;0.50;0.50;;;;;;;11.89;100.00;96068.94;5075057;28;20316;-74
2023/10/27 08:21:36;;;;;;;0.70;0.40;;;;;;;11.99;100.00;96077.69;5074779;28;20210;-73
2023/10/27 08:24:03;;;;;;;0.97;0.50;;;;;;;11.89;100.00;96080.38;5074927;28;20226;-73
2023/10/27 08:26:29;;;;;;;0.50;0.50;;;;;;;11.84;100.00;96079.63;5075058;28;20209;-73
2023/10/27 08:28:56;;;;;;;0.93;0.40;;;;;;;11.78;100.00;96084.19;5075029;28;20223;-74
2023/10/27 08:31:23;;;;;;;0.40;0.40;;;;;;;11.80;100.00;96092.66;5075122;28;20203;-73
2023/10/27 08:33:49;;;;;;;0.67;0.40;;;;;;;11.81;100.00;96096.16;5074761;28;20626;-73
2023/10/27 08:36:16;;;;;;;0.50;0.40;;;;;;;11.86;100.00;96096.13;5075681;28;20204;-73
2023/10/27 08:38:45;;;;;;;0.30;0.30;;;;;;;11.76;100.00;96098.84;5074648;28;20231;-73
2023/10/27 08:41:13;;;;;;;1.07;0.40;;;;;;;11.93;100.00;96102.72;5074837;28;20264;-73
2023/10/27 08:43:40;;;;;;;1.47;0.50;;;;;;;11.86;100.00;96112.91;5075168;28;20315;-73
2023/10/27 08:46:08;;;;;;;0.37;0.37;;;;;;;11.77;100.00;96119.84;5074820;28;20210;-73
2023/10/27 08:48:34;;;;;;;0.30;0.30;;;;;;;11.73;100.00;96112.69;5074394;28;20328;-73
2023/10/27 08:51:07;;;;;;;0.33;0.30;;;;;;;11.54;100.00;96114.31;5074496;28;20213;-73
2023/10/27 08:53:38;;;;;;;0.97;0.40;;;;;;;11.52;100.00;96116.47;5075489;28;20201;-73
2023/10/27 08:56:06;;;;;;;0.30;0.30;;;;;;;11.47;100.00;96111.94;5074603;28;20278;-73
2023/10/27 08:58:32;;;;;;;0.63;0.30;;;;;;;11.49;100.00;96115.13;5074728;28;20236;-73
2023/10/27 09:00:58;;;;;;;0.33;0.30;;;;;;;11.46;100.00;96118.34;5074176;28;20206;-73
2023/10/27 09:03:28;;;;;;;0.30;0.30;;;;;;;11.49;100.00;96122.31;5074139;28;20235;-73
2023/10/27 09:05:54;;;;;;;1.70;0.40;;;;;;;11.53;100.00;96116.16;5074252;28;20205;-73
2023/10/27 09:08:21;;;;;;;0.57;0.40;;;;;;;11.62;100.00;96119.91;5074155;28;20235;-73
2023/10/27 09:10:47;;;;;;;0.97;0.40;;;;;;;11.41;100.00;96128.19;5073984;28;20702;-73
2023/10/27 09:13:20;;;;;;;0.40;0.40;;;;;;;11.57;100.00;96125.22;5074115;28;20572;-73
2023/10/27 09:15:46;;;;;;;1.80;0.60;;;;;;;11.65;100.00;96130.00;5055758;28;20190;-73
2023/10/27 09:18:13;;;;;;;0.97;0.50;;;;;;;11.71;100.00;96136.91;5073991;28;20227;-74
2023/10/27 09:20:53;;;;;;;1.50;0.50;;;;;;;11.87;100.00;96130.47;5074092;28;20616;-74
2023/10/27 09:23:22;;;;;;;1.23;0.63;;;;;;;11.85;100.00;96145.88;5073791;28;20325;-74
2023/10/27 09:25:49;;;;;;;0.50;0.40;;;;;;;11.81;100.00;96142.22;5073965;28;20210;-73
2023/10/27 09:28:15;;;;;;;1.37;0.40;;;;;;;11.79;100.00;96149.66;5073387;28;20310;-74
2023/10/27 09:30:43;;;;;;;0.40;0.40;;;;;;;11.80;100.00;96147.81;5073511;28;20205;-74
2023/10/27 09:33:15;;;;;;;0.40;0.40;;;;;;;11.80;100.00;96159.22;5073651;28;20207;-74
2023/10/27 09:35:42;;;;;;;0.40;0.37;;;;;;;11.68;100.00;96157.94;5056100;28;20225;-73
2023/10/27 09:38:09;;;;;;;2.10;0.60;;;;;;;11.76;100.00;96168.81;5073001;28;20223;-73
2023/10/27 09:40:38;;;;;;;1.10;0.53;;;;;;;11.64;100.00;96168.34;5073637;28;20206;-73
2023/10/27 09:43:15;;;;;;;0.33;0.33;;;;;;;11.73;100.00;96177.38;5073605;28;20243;-73
2023/10/27 09:45:51;;;;;;;0.80;0.70;;;;;;;11.77;100.00;96183.75;5073443;28;20193;-73
2023/10/27 09:48:23;;;;;;;0.50;0.50;;;;;;;11.81;100.00;96198.13;5056858;28;20232;-73
2023/10/27 09:50:50;;;;;;;2.00;0.60;;;;;;;11.79;100.00;96183.44;5073754;28;20193;-73
2023/10/27 09:53:17;;;;;;;0.63;0.60;;;;;;;11.77;100.00;96178.44;5073235;28;20561;-73
2023/10/27 09:55:43;;;;;;;0.53;0.50;;;;;;;11.78;100.00;96185.34;5073759;28;20202;-73
2023/10/27 09:58:10;;;;;;;1.67;0.70;;;;;;;11.88;100.00;96190.63;5073865;28;20231;-73
2023/10/27 10:00:37;;;;;;;1.10;0.70;;;;;;;11.91;100.00;96187.41;5073373;28;20300;-73
2023/10/27 10:03:07;;;;;;;2.07;0.77;;;;;;;12.08;100.00;96200.41;5072996;28;20593;-73
2023/10/27 10:06:11;;;;;;;1.80;0.60;;;;;;;11.89;100.00;96200.19;5073464;28;20206;-73
2023/10/27 10:08:38;;;;;;;1.23;0.70;;;;;;;11.70;100.00;96206.41;5074125;28;20544;-73
2023/10/27 10:11:15;;;;;;;0.50;0.50;;;;;;;11.72;100.00;96209.56;5073100;28;20206;-73
2023/10/27 10:13:42;;;;;;;1.23;0.70;;;;;;;11.76;100.00;96208.75;5073173;28;20202;-73
2023/10/27 10:16:09;;;;;;;1.53;0.70;;;;;;;11.80;100.00;96209.81;5073440;28;20207;-73
2023/10/27 10:18:36;;;;;;;0.90;0.70;;;;;;;12.03;100.00;96209.19;5072972;28;20230;-73
2023/10/27 10:21:03;;;;;;;0.70;0.70;;;;;;;11.90;100.00;96209.78;5072916;28;20205;-73
2023/10/27 10:23:38;;;;;;;0.93;0.50;;;;;;;11.89;100.00;96210.06;5072877;28;20237;-73
2023/10/27 10:26:05;;;;;;;1.27;0.63;;;;;;;11.81;100.00;96221.25;5073060;28;20200;-73
2023/10/27 10:28:34;;;;;;;3.20;0.87;;;;;;;11.88;100.00;96219.09;5072660;28;20593;-73
2023/10/27 10:31:09;;;;;;;0.97;0.70;;;;;;;12.09;100.00;96218.78;5073163;28;20212;-73
2023/10/27 10:33:38;;;;;;;0.90;0.60;;;;;;;12.05;100.00;96214.25;5072695;28;20647;-73
2023/10/27 10:36:14;;;;;;;1.67;0.90;;;;;;;12.06;100.00;96219.31;5073142;28;20209;-74
2023/10/27 10:38:43;;;;;;;0.83;0.70;;;;;;;12.15;100.00;96208.88;5072885;28;20234;-74
2023/10/27 10:41:10;;;;;;;0.60;0.60;;;;;;;12.29;100.00;96223.22;5072926;28;20206;-73
2023/10/27 10:43:37;;;;;;;3.00;0.70;;;;;;;12.34;100.00;96213.31;5073020;28;20221;-73
2023/10/27 10:46:10;;;;;;;1.03;0.70;;;;;;;12.68;100.00;96205.41;5072363;28;20640;-73
2023/10/27 10:48:41;;;;;;;2.15;0.80;;;;;;;12.71;100.00;96205.63;5073522;28;20721;-74
2023/10/27 10:51:14;;;;;;;2.23;1.03;;;;;;;12.75;100.00;96205.91;5072960;28;20199;-73
2023/10/27 10:53:41;;;;;;;1.83;0.90;;;;;;;12.81;100.00;96205.59;5072595;28;20190;-74
2023/10/27 10:56:07;;;;;;;2.40;0.60;;;;;;;12.96;100.00;96208.16;5072621;28;20237;-74
2023/10/27 10:58:36;;;;;;;2.40;0.73;;;;;;;13.08;100.00;96192.63;5072963;28;20227;-74
2023/10/27 11:01:03;;;;;;;2.87;0.87;;;;;;;13.23;100.00;96203.16;5072390;28;20211;-73
2023/10/27 11:03:33;;;;;;;2.53;0.60;;;;;;;13.33;100.00;96205.72;5072505;28;20258;-73
2023/10/27 11:06:02;;;;;;;2.93;0.87;;;;;;;13.21;100.00;96197.28;5072446;28;20204;-73
2023/10/27 11:08:31;;;;;;;1.47;0.80;;;;;;;13.29;100.00;96212.69;5072585;28;20238;-73
2023/10/27 11:11:13;;;;;;;3.03;1.03;;;;;;;13.51;100.00;96207.69;5072745;28;20204;-73
2023/10/27 11:13:43;;;;;;;1.80;0.90;;;;;;;13.58;100.00;96202.03;5072666;28;20297;-73
2023/10/27 11:16:21;;;;;;;3.10;0.90;;;;;;;13.73;100.00;96197.34;5076247;28;20643;-73
2023/10/27 11:18:49;;;;;;;2.33;0.90;;;;;;;13.87;100.00;96202.78;5076136;28;20591;-73
2023/10/27 11:21:20;;;;;;;1.00;0.70;;;;;;;14.06;100.00;96196.41;5076201;28;20307;-73
2023/10/27 11:23:47;;;;;;;1.80;0.90;;;;;;;14.07;100.00;96198.00;5076338;28;20220;-73